createdAt,value
2023-03-27T00:01:58.836Z,99358.13
2023-03-27T00:04:28.360Z,99368.16
2023-03-27T00:06:59.582Z,99371.22
2023-03-27T00:09:29.238Z,99372.75
2023-03-27T00:11:58.094Z,99375.94
2023-03-27T00:14:26.185Z,99382.69
2023-03-27T00:16:54.270Z,99374.88
2023-03-27T00:19:22.705Z,99376.94
2023-03-27T00:21:50.889Z,99377.34
2023-03-27T00:24:20.611Z,99373.53
2023-03-27T00:26:48.745Z,99371.31
2023-03-27T00:29:16.937Z,99377.66
2023-03-27T00:31:44.981Z,99375.47
2023-03-27T00:34:13.393Z,99375.75
2023-03-27T00:36:41.844Z,99382.34
2023-03-27T00:39:10.295Z,99379.47
2023-03-27T00:41:40.588Z,99375.59
2023-03-27T00:44:23.980Z,99373.69
2023-03-27T00:46:54.574Z,99375.88
2023-03-27T00:49:25.779Z,99381.38
2023-03-27T00:51:56.976Z,99374.78
2023-03-27T00:54:30.130Z,99374.09
2023-03-27T00:57:19.634Z,99375.19
2023-03-27T00:59:49.549Z,99372.00
2023-03-27T01:02:21.337Z,99371.47
2023-03-27T01:04:50.234Z,99374.22
2023-03-27T01:07:21.332Z,99372.00
2023-03-27T01:09:50.606Z,99375.84
2023-03-27T01:12:44.435Z,99381.47
2023-03-27T01:15:37.708Z,99373.91
2023-03-27T01:18:22.827Z,99370.88
2023-03-27T01:21:31.671Z,99376.50
2023-03-27T01:24:33.907Z,99378.56
2023-03-27T01:27:07.631Z,99368.63
2023-03-27T01:30:13.530Z,99375.75
2023-03-27T01:33:27.198Z,99380.56
2023-03-27T01:36:21.376Z,99376.56
2023-03-27T01:39:25.336Z,99378.59
2023-03-27T01:42:05.436Z,99381.63
2023-03-27T01:44:44.435Z,99378.59
2023-03-27T01:47:23.700Z,99379.66
2023-03-27T01:49:55.458Z,99381.75
2023-03-27T01:52:28.402Z,99383.66
2023-03-27T01:55:03.510Z,99386.38
2023-03-27T01:57:49.203Z,99384.16
2023-03-27T02:00:22.730Z,99390.19
2023-03-27T02:02:55.692Z,99391.28
2023-03-27T02:05:31.288Z,99393.34
2023-03-27T02:08:04.588Z,99396.09
2023-03-27T02:10:37.572Z,99401.56
2023-03-27T02:13:13.432Z,99404.16
2023-03-27T02:15:45.075Z,99406.44
2023-03-27T02:18:20.616Z,99410.03
2023-03-27T02:20:48.866Z,99411.13
2023-03-27T02:23:17.357Z,99413.84
2023-03-27T02:25:46.963Z,99420.84
2023-03-27T02:28:40.154Z,99418.50
2023-03-27T02:31:35.087Z,99416.13
2023-03-27T02:34:18.727Z,99411.19
2023-03-27T02:36:55.321Z,99420.66
2023-03-27T02:39:28.225Z,99424.34
2023-03-27T02:42:04.038Z,99418.31
2023-03-27T02:44:46.264Z,99409.09
2023-03-27T02:47:27.935Z,99423.78
2023-03-27T02:50:01.911Z,99421.28
2023-03-27T02:52:34.386Z,99423.06
2023-03-27T02:55:07.936Z,99430.19
2023-03-27T02:57:39.991Z,99427.59
2023-03-27T03:00:20.026Z,99424.28
2023-03-27T03:02:50.374Z,99429.63
2023-03-27T03:05:23.550Z,99431.53
2023-03-27T03:07:54.321Z,99447.31
2023-03-27T03:10:24.786Z,99430.00
2023-03-27T03:12:52.991Z,99435.22
2023-03-27T03:15:22.989Z,99430.84
2023-03-27T03:17:51.310Z,99445.66
2023-03-27T03:20:19.392Z,99442.22
2023-03-27T03:22:47.564Z,99436.88
2023-03-27T03:25:15.808Z,99444.00
2023-03-27T03:27:44.315Z,99441.50
2023-03-27T03:30:16.804Z,99441.63
2023-03-27T03:32:47.398Z,99447.91
2023-03-27T03:35:15.793Z,99447.25
2023-03-27T03:37:54.549Z,99449.16
2023-03-27T03:40:23.000Z,99455.44
2023-03-27T03:42:53.081Z,99441.00
2023-03-27T03:45:22.305Z,99454.97
2023-03-27T03:47:52.424Z,99457.81
2023-03-27T03:50:20.588Z,99458.09
2023-03-27T03:52:48.637Z,99464.38
2023-03-27T03:55:17.445Z,99458.69
2023-03-27T03:57:48.488Z,99462.38
2023-03-27T04:00:18.857Z,99457.44
2023-03-27T04:02:50.532Z,99463.69
2023-03-27T04:05:20.747Z,99462.16
2023-03-27T04:07:49.877Z,99454.84
2023-03-27T04:10:18.817Z,99457.31
2023-03-27T04:12:50.158Z,99456.63
2023-03-27T04:15:18.656Z,99457.59
2023-03-27T04:17:48.543Z,99469.91
2023-03-27T04:20:18.722Z,99464.09
2023-03-27T04:22:52.537Z,99465.16
2023-03-27T04:25:24.158Z,99466.00
2023-03-27T04:27:53.305Z,99470.38
2023-03-27T04:30:23.472Z,99473.91
2023-03-27T04:32:52.674Z,99474.03
2023-03-27T04:35:22.014Z,99473.34
2023-03-27T04:37:51.604Z,99482.13
2023-03-27T04:40:20.802Z,99484.00
2023-03-27T04:42:50.256Z,99480.59
2023-03-27T04:45:22.780Z,99488.28
2023-03-27T04:47:51.297Z,99483.19
2023-03-27T04:50:19.590Z,99482.25
2023-03-27T04:52:50.318Z,99485.66
2023-03-27T04:55:20.587Z,99481.53
2023-03-27T04:57:49.227Z,99479.88
2023-03-27T05:00:19.555Z,99481.53
2023-03-27T05:02:48.793Z,99480.69
2023-03-27T05:05:17.265Z,99482.25
2023-03-27T05:07:47.115Z,99483.06
2023-03-27T05:10:17.270Z,99488.84
2023-03-27T05:12:54.202Z,99490.38
2023-03-27T05:15:23.348Z,99493.56
2023-03-27T05:17:59.692Z,99503.63
2023-03-27T05:20:27.820Z,99502.53
2023-03-27T05:23:06.779Z,99506.56
2023-03-27T05:25:35.169Z,99510.59
2023-03-27T05:28:04.850Z,99516.25
2023-03-27T05:30:33.034Z,99519.44
2023-03-27T05:33:01.180Z,99523.34
2023-03-27T05:35:29.777Z,99522.97
2023-03-27T05:37:59.099Z,99525.81
2023-03-27T05:40:29.378Z,99524.63
2023-03-27T05:42:58.574Z,99524.47
2023-03-27T05:45:29.416Z,99522.19
2023-03-27T05:47:59.444Z,99521.31
2023-03-27T05:50:30.401Z,99524.16
2023-03-27T05:52:59.933Z,99521.72
2023-03-27T05:55:28.346Z,99520.25
2023-03-27T05:57:56.579Z,99522.25
2023-03-27T06:00:25.936Z,99529.06
2023-03-27T06:02:57.584Z,99515.44
2023-03-27T06:05:26.804Z,99520.34
2023-03-27T06:07:55.921Z,99517.16
2023-03-27T06:10:24.000Z,99510.63
2023-03-27T06:13:00.501Z,99514.94
2023-03-27T06:15:28.794Z,99530.41
2023-03-27T06:17:58.961Z,99531.03
2023-03-27T06:20:28.906Z,99535.34
2023-03-27T06:22:59.668Z,99547.34
2023-03-27T06:25:32.168Z,99542.44
2023-03-27T06:28:00.283Z,99537.38
2023-03-27T06:30:29.433Z,99550.59
2023-03-27T06:33:03.150Z,99550.09
2023-03-27T06:35:33.716Z,99548.28
2023-03-27T06:38:02.794Z,99554.97
2023-03-27T06:40:32.318Z,99550.41
2023-03-27T06:43:02.662Z,99558.13
2023-03-27T06:45:32.668Z,99560.06
2023-03-27T06:48:13.809Z,99560.06
2023-03-27T06:50:49.752Z,99570.75
2023-03-27T06:53:27.199Z,99568.88
2023-03-27T06:55:59.400Z,99571.34
2023-03-27T06:58:28.154Z,99571.81
2023-03-27T07:00:59.674Z,99574.59
2023-03-27T07:03:29.310Z,99579.03
2023-03-27T07:05:58.098Z,99584.28
2023-03-27T07:08:26.404Z,99576.16
2023-03-27T07:13:26.304Z,99590.91
2023-03-27T07:15:55.550Z,99580.72
2023-03-27T07:18:23.746Z,99583.47
2023-03-27T07:21:00.005Z,99579.31
2023-03-27T07:23:28.339Z,99586.34
2023-03-27T07:25:59.599Z,99589.22
2023-03-27T07:28:27.975Z,99584.38
2023-03-27T07:30:56.354Z,99582.84
2023-03-27T07:33:25.255Z,99585.06
2023-03-27T07:35:54.000Z,99591.63
2023-03-27T07:38:23.662Z,99586.22
2023-03-27T07:40:51.860Z,99592.97
2023-03-27T07:43:20.205Z,99590.72
2023-03-27T07:45:50.375Z,99591.00
2023-03-27T07:48:19.059Z,99598.56
2023-03-27T07:50:47.939Z,99587.13
2023-03-27T07:53:33.645Z,99589.69
2023-03-27T07:56:05.519Z,99587.56
2023-03-27T07:58:33.708Z,99587.94
2023-03-27T08:01:04.754Z,99592.75
2023-03-27T08:03:33.143Z,99593.72
2023-03-27T08:06:02.005Z,99593.00
2023-03-27T08:08:30.415Z,99603.38
2023-03-27T08:10:59.199Z,99591.19
2023-03-27T08:13:29.044Z,99597.94
2023-03-27T08:16:04.663Z,99592.53
2023-03-27T08:18:32.868Z,99588.84
2023-03-27T08:21:03.176Z,99601.53
2023-03-27T08:23:32.735Z,99598.69
2023-03-27T08:26:01.732Z,99592.59
2023-03-27T08:28:33.081Z,99592.59
2023-03-27T08:31:04.124Z,99596.78
2023-03-27T08:33:32.233Z,99602.28
2023-03-27T08:36:00.363Z,99603.00
2023-03-27T08:38:33.358Z,99609.75
2023-03-27T08:41:03.932Z,99600.06
2023-03-27T08:43:38.905Z,99604.69
2023-03-27T08:46:14.758Z,99619.03
2023-03-27T08:48:48.794Z,99606.56
2023-03-27T08:51:23.834Z,99618.06
2023-03-27T08:53:57.596Z,99611.00
2023-03-27T08:56:27.376Z,99620.63
2023-03-27T08:58:57.071Z,99609.50
2023-03-27T09:01:32.164Z,99608.53
2023-03-27T09:04:07.370Z,99612.66
2023-03-27T09:06:42.761Z,99618.38
2023-03-27T09:09:28.731Z,99623.78
2023-03-27T09:12:05.040Z,99622.19
2023-03-27T09:14:37.820Z,99620.28
2023-03-27T09:17:13.516Z,99622.66
2023-03-27T09:19:49.185Z,99622.53
2023-03-27T09:22:23.043Z,99623.44
2023-03-27T09:24:55.303Z,99621.94
2023-03-27T09:27:27.474Z,99621.25
2023-03-27T09:30:04.941Z,99636.03
2023-03-27T09:32:35.083Z,99632.28
2023-03-27T09:35:04.729Z,99633.31
2023-03-27T09:37:34.487Z,99636.09
2023-03-27T09:40:08.465Z,99640.06
2023-03-27T09:42:40.937Z,99634.81
2023-03-27T09:45:14.559Z,99631.22
2023-03-27T09:47:53.546Z,99633.19
2023-03-27T09:50:27.793Z,99636.47
2023-03-27T09:53:09.378Z,99638.31
2023-03-27T09:55:50.678Z,99630.09
2023-03-27T09:58:32.011Z,99638.81
2023-03-27T10:01:17.049Z,99636.41
2023-03-27T10:03:52.771Z,99642.00
2023-03-27T10:06:27.935Z,99654.78
2023-03-27T10:08:57.705Z,99650.13
2023-03-27T10:11:29.769Z,99649.16
2023-03-27T10:13:59.675Z,99638.63
2023-03-27T10:16:30.154Z,99640.97
2023-03-27T10:19:00.516Z,99651.19
2023-03-27T10:21:31.262Z,99645.03
2023-03-27T10:24:05.784Z,99643.19
2023-03-27T10:26:38.662Z,99647.72
2023-03-27T10:29:23.381Z,99647.63
2023-03-27T10:31:54.936Z,99652.31
2023-03-27T10:34:38.066Z,99644.59
2023-03-27T10:37:22.111Z,99649.84
2023-03-27T10:39:50.531Z,99649.00
2023-03-27T10:42:22.868Z,99659.47
2023-03-27T10:44:54.563Z,99654.94
2023-03-27T10:47:30.398Z,99647.97
2023-03-27T10:50:05.127Z,99657.19
2023-03-27T10:52:45.768Z,99652.22
2023-03-27T10:55:25.144Z,99663.75
2023-03-27T10:57:57.099Z,99663.75
2023-03-27T11:00:34.815Z,99658.63
2023-03-27T11:03:12.019Z,99658.38
2023-03-27T11:05:44.283Z,99657.16
2023-03-27T11:08:17.289Z,99663.81
2023-03-27T11:10:47.957Z,99658.41
2023-03-27T11:13:20.453Z,99670.59
2023-03-27T11:15:54.256Z,99663.66
2023-03-27T11:18:29.900Z,99669.22
2023-03-27T11:21:02.309Z,99667.78
2023-03-27T11:23:38.548Z,99676.66
2023-03-27T11:26:08.970Z,99676.53
2023-03-27T11:28:43.522Z,99683.00
2023-03-27T11:31:21.322Z,99687.97
2023-03-27T11:33:56.244Z,99677.25
2023-03-27T11:36:41.024Z,99669.31
2023-03-27T11:39:16.854Z,99687.41
2023-03-27T11:41:47.479Z,99681.72
2023-03-27T11:44:15.955Z,99684.13
2023-03-27T11:47:01.766Z,99679.75
2023-03-27T11:50:09.169Z,99676.97
2023-03-27T11:52:49.323Z,99684.19
2023-03-27T11:55:27.181Z,99685.22
2023-03-27T11:58:10.774Z,99685.41
2023-03-27T12:00:47.590Z,99686.91
2023-03-27T12:03:41.696Z,99692.22
2023-03-27T12:06:18.331Z,99682.19
2023-03-27T12:09:07.320Z,99689.00
2023-03-27T12:11:40.402Z,99687.22
2023-03-27T12:14:40.577Z,99693.78
2023-03-27T12:17:44.531Z,99690.63
2023-03-27T12:20:43.579Z,99689.16
2023-03-27T12:23:47.938Z,99691.81
2023-03-27T12:26:31.018Z,99692.41
2023-03-27T12:29:23.129Z,99700.72
2023-03-27T12:32:05.260Z,99700.03
2023-03-27T12:34:51.923Z,99695.91
2023-03-27T12:37:26.794Z,99699.06
2023-03-27T12:40:00.151Z,99698.25
2023-03-27T12:42:44.954Z,99696.78
2023-03-27T12:45:19.622Z,99698.22
2023-03-27T12:48:06.634Z,99720.78
2023-03-27T12:50:37.049Z,99702.66
2023-03-27T12:53:05.869Z,99696.78
2023-03-27T12:55:37.682Z,99700.75
2023-03-27T12:58:07.411Z,99704.56
2023-03-27T13:00:36.714Z,99700.28
2023-03-27T13:03:47.512Z,99695.34
2023-03-27T13:06:27.322Z,99694.38
2023-03-27T13:09:22.081Z,99695.72
2023-03-27T13:12:17.689Z,99715.66
2023-03-27T13:15:08.663Z,99705.59
2023-03-27T13:17:57.317Z,99714.66
2023-03-27T13:20:38.027Z,99714.47
2023-03-27T13:23:21.088Z,99721.75
2023-03-27T13:26:03.056Z,99717.28
2023-03-27T13:28:35.776Z,99720.91
2023-03-27T13:31:06.041Z,99715.81
2023-03-27T13:33:44.078Z,99720.41
2023-03-27T13:36:20.077Z,99712.63
2023-03-27T13:39:15.264Z,99720.22
2023-03-27T13:41:59.854Z,99724.34
2023-03-27T13:44:42.816Z,99719.00
2023-03-27T13:47:35.898Z,99714.06
2023-03-27T13:50:38.488Z,99722.03
2023-03-27T13:53:34.693Z,99720.72
2023-03-27T13:56:16.345Z,99728.16
2023-03-27T13:59:28.107Z,99739.91
2023-03-27T14:02:13.048Z,99726.34
2023-03-27T14:05:10.611Z,99729.66
2023-03-27T14:08:02.954Z,99750.63
2023-03-27T14:10:49.144Z,99745.69
2023-03-27T14:13:29.965Z,99746.31
2023-03-27T14:16:37.984Z,99739.19
2023-03-27T14:19:28.328Z,99747.06
2023-03-27T14:22:01.137Z,99747.53
2023-03-27T14:24:37.320Z,99753.16
2023-03-27T14:27:07.741Z,99751.31
2023-03-27T14:30:04.873Z,99747.06
2023-03-27T14:32:33.141Z,99755.97
2023-03-27T14:35:05.564Z,99755.81
2023-03-27T14:37:37.220Z,99758.31
2023-03-27T14:40:22.931Z,99762.78
2023-03-27T14:42:52.787Z,99759.50
2023-03-27T14:45:24.264Z,99757.34
2023-03-27T14:47:55.686Z,99765.25
2023-03-27T14:50:26.648Z,99762.63
2023-03-27T14:52:55.682Z,99768.84
2023-03-27T14:55:30.067Z,99774.94
2023-03-27T14:58:02.302Z,99773.94
2023-03-27T15:00:34.535Z,99769.50
2023-03-27T15:03:08.820Z,99778.69
2023-03-27T15:05:57.535Z,99779.00
2023-03-27T15:08:28.739Z,99777.47
2023-03-27T15:10:57.134Z,99776.13
2023-03-27T15:13:26.838Z,99780.19
2023-03-27T15:15:58.853Z,99784.81
2023-03-27T15:18:32.983Z,99787.44
2023-03-27T15:21:06.817Z,99791.41
2023-03-27T15:23:43.997Z,99783.34
2023-03-27T15:26:20.337Z,99785.25
2023-03-27T15:28:53.714Z,99785.44
2023-03-27T15:31:22.787Z,99793.38
2023-03-27T15:34:02.298Z,99788.94
2023-03-27T15:36:36.168Z,99791.13
2023-03-27T15:39:06.951Z,99799.41
2023-03-27T15:41:44.883Z,99797.75
2023-03-27T15:44:19.884Z,99810.56
2023-03-27T15:46:55.489Z,99811.22
2023-03-27T15:49:27.175Z,99821.22
2023-03-27T15:51:57.052Z,99812.78
2023-03-27T15:54:28.411Z,99823.31
2023-03-27T15:57:10.473Z,99827.22
2023-03-27T15:59:52.149Z,99828.59
2023-03-27T16:02:25.071Z,99838.09
2023-03-27T16:04:55.913Z,99845.75
2023-03-27T16:07:30.193Z,99845.31
2023-03-27T16:10:02.802Z,99842.75
2023-03-27T16:12:33.807Z,99839.38
2023-03-27T16:15:06.446Z,99842.09
2023-03-27T16:17:41.231Z,99859.28
2023-03-27T16:20:40.291Z,99848.41
2023-03-27T16:23:10.325Z,99852.31
2023-03-27T16:25:41.332Z,99855.38
2023-03-27T16:28:11.168Z,99870.47
2023-03-27T16:30:41.915Z,99874.28
2023-03-27T16:33:15.956Z,99875.16
2023-03-27T16:35:45.661Z,99889.06
2023-03-27T16:38:17.309Z,99890.72
2023-03-27T16:40:47.947Z,99905.19
2023-03-27T16:43:17.973Z,99910.66
2023-03-27T16:45:46.849Z,99910.00
2023-03-27T16:48:15.106Z,99911.53
2023-03-27T16:50:55.541Z,99910.28
2023-03-27T16:53:25.612Z,99904.53
2023-03-27T16:55:55.944Z,99914.19
2023-03-27T16:58:24.204Z,99914.47
2023-03-27T17:00:52.288Z,99909.63
2023-03-27T17:03:20.422Z,99914.63
2023-03-27T17:05:57.014Z,99922.06
2023-03-27T17:08:26.660Z,99925.38
2023-03-27T17:10:54.787Z,99923.31
2023-03-27T17:13:22.924Z,99919.72
2023-03-27T17:15:51.776Z,99933.81
2023-03-27T17:18:19.944Z,99927.88
2023-03-27T17:20:58.439Z,99941.53
2023-03-27T17:23:28.157Z,99942.50
2023-03-27T17:25:57.909Z,99953.13
2023-03-27T17:28:26.388Z,99947.34
2023-03-27T17:31:04.830Z,99958.00
2023-03-27T17:33:33.906Z,99956.59
2023-03-27T17:36:26.848Z,99961.97
2023-03-27T17:39:05.889Z,99981.44
2023-03-27T17:41:34.476Z,99962.63
2023-03-27T17:44:07.523Z,99970.97
2023-03-27T17:46:36.230Z,99978.94
2023-03-27T17:49:04.323Z,99980.31
2023-03-27T17:51:32.440Z,99996.19
2023-03-27T17:54:00.693Z,99991.06
2023-03-27T17:56:32.003Z,99985.13
2023-03-27T17:59:00.218Z,99988.00
2023-03-27T18:01:28.410Z,100000.41
2023-03-27T18:03:59.382Z,99998.75
2023-03-27T18:06:27.624Z,99999.03
2023-03-27T18:08:55.712Z,100009.44
2023-03-27T18:11:23.806Z,100012.31
2023-03-27T18:13:53.624Z,100016.59
2023-03-27T18:16:23.134Z,100008.19
2023-03-27T18:18:54.911Z,100010.09
2023-03-27T18:21:23.256Z,100016.16
2023-03-27T18:23:53.406Z,100013.41
2023-03-27T18:26:21.958Z,100004.59
2023-03-27T18:28:50.101Z,100004.97
2023-03-27T18:31:19.956Z,100003.91
2023-03-27T18:33:48.088Z,100008.44
2023-03-27T18:36:17.238Z,100012.84
2023-03-27T18:38:49.163Z,100011.31
2023-03-27T18:41:18.868Z,100011.44
2023-03-27T18:43:46.956Z,100004.66
2023-03-27T18:46:17.204Z,100011.84
2023-03-27T18:48:50.102Z,100020.13
2023-03-27T18:51:19.376Z,100012.97
2023-03-27T18:53:47.625Z,100016.53
2023-03-27T18:56:16.799Z,100024.41
2023-03-27T18:58:45.146Z,100026.19
2023-03-27T19:01:13.683Z,100015.84
2023-03-27T19:03:42.250Z,100023.56
2023-03-27T19:06:13.257Z,100026.06
2023-03-27T19:08:42.997Z,100030.09
2023-03-27T19:11:14.740Z,100030.34
2023-03-27T19:13:42.813Z,100028.56
2023-03-27T19:16:14.101Z,100048.44
2023-03-27T19:18:43.778Z,100049.50
2023-03-27T19:21:14.700Z,100033.91
2023-03-27T19:23:42.911Z,100041.06
2023-03-27T19:26:14.211Z,100044.66
2023-03-27T19:28:44.102Z,100052.63
2023-03-27T19:31:13.554Z,100035.97
2023-03-27T19:33:42.280Z,100040.63
2023-03-27T19:36:12.888Z,100044.94
2023-03-27T19:38:41.882Z,100042.16
2023-03-27T19:41:10.698Z,100052.63
2023-03-27T19:43:39.393Z,100044.94
2023-03-27T19:46:16.373Z,100042.97
2023-03-27T19:48:45.387Z,100043.09
2023-03-27T19:51:14.864Z,100047.53
2023-03-27T19:53:46.279Z,100051.25
2023-03-27T19:56:14.872Z,100054.94
2023-03-27T19:58:42.884Z,100058.38
2023-03-27T20:01:12.369Z,100057.56
2023-03-27T20:03:40.710Z,100056.84
2023-03-27T20:06:13.474Z,100062.09
2023-03-27T20:08:44.746Z,100051.63
2023-03-27T20:11:13.117Z,100061.38
2023-03-27T20:13:55.621Z,100050.91
2023-03-27T20:16:27.465Z,100061.50
2023-03-27T20:19:04.800Z,100054.59
2023-03-27T20:21:34.500Z,100056.28
2023-03-27T20:24:06.067Z,100060.78
2023-03-27T20:26:39.435Z,100046.19
2023-03-27T20:29:08.449Z,100052.38
2023-03-27T20:31:36.858Z,100048.94
2023-03-27T20:34:06.716Z,100044.53
2023-03-27T20:36:35.975Z,100050.72
2023-03-27T20:39:09.183Z,100047.28
2023-03-27T20:41:39.065Z,100036.94
2023-03-27T20:44:15.730Z,100043.69
2023-03-27T20:46:51.742Z,100048.94
2023-03-27T20:51:57.803Z,100045.25
2023-03-27T20:54:27.486Z,100041.50
2023-03-27T20:56:58.874Z,100044.97
2023-03-27T20:59:27.392Z,100038.88
2023-03-27T21:01:55.923Z,100045.78
2023-03-27T21:04:25.678Z,100044.97
2023-03-27T21:06:57.969Z,100048.41
2023-03-27T21:09:28.549Z,100042.34
2023-03-27T21:11:57.240Z,100038.66
2023-03-27T21:14:25.633Z,100043.16
2023-03-27T21:16:53.953Z,100036.03
2023-03-27T21:19:22.498Z,100043.75
2023-03-27T21:21:50.859Z,100042.56
2023-03-27T21:24:19.596Z,100050.41
2023-03-27T21:26:49.059Z,100038.28
2023-03-27T21:29:17.239Z,100040.63
2023-03-27T21:31:45.469Z,100038.69
2023-03-27T21:34:13.578Z,100047.25
2023-03-27T21:36:41.681Z,100035.13
2023-03-27T21:39:09.838Z,100034.16
2023-03-27T21:41:37.899Z,100040.13
2023-03-27T21:44:11.749Z,100042.47
2023-03-27T21:46:40.062Z,100045.09
2023-03-27T21:49:08.154Z,100037.94
2023-03-27T21:51:36.300Z,100035.34
2023-03-27T21:54:04.408Z,100040.31
2023-03-27T21:56:32.632Z,100040.88
2023-03-27T21:59:01.645Z,100042.66
2023-03-27T22:01:31.642Z,100054.81
2023-03-27T22:04:02.354Z,100050.50
2023-03-27T22:06:30.922Z,100050.50
2023-03-27T22:08:59.278Z,100055.06
2023-03-27T22:11:27.724Z,100056.03
2023-03-27T22:13:56.047Z,100049.13
2023-03-27T22:16:24.286Z,100057.81
2023-03-27T22:18:54.580Z,100049.38
2023-03-27T22:21:24.567Z,100048.69
2023-03-27T22:23:53.609Z,100052.25
2023-03-27T22:26:23.954Z,100054.03
2023-03-27T22:28:52.557Z,100057.50
2023-03-27T22:31:21.730Z,100059.28
2023-03-27T22:33:50.097Z,100078.56
2023-03-27T22:36:20.184Z,100074.03
2023-03-27T22:38:48.918Z,100067.13
2023-03-27T22:41:20.437Z,100060.22
2023-03-27T22:43:50.257Z,100060.22
2023-03-27T22:46:20.724Z,100068.09
2023-03-27T22:48:48.957Z,100067.25
2023-03-27T22:51:17.066Z,100071.66
2023-03-27T22:53:46.896Z,100074.28
2023-03-27T22:56:15.124Z,100069.88
2023-03-27T22:58:43.329Z,100074.16
2023-03-27T23:01:11.612Z,100072.38
2023-03-27T23:03:40.812Z,100063.56
2023-03-27T23:06:16.921Z,100061.66
2023-03-27T23:08:46.667Z,100060.69
2023-03-27T23:11:15.454Z,100054.63
2023-03-27T23:13:43.790Z,100063.19
2023-03-27T23:16:13.132Z,100057.00
2023-03-27T23:18:41.783Z,100060.16
2023-03-27T23:21:11.844Z,100070.38
2023-03-27T23:23:41.428Z,100072.88
2023-03-27T23:26:12.902Z,100063.94
2023-03-27T23:28:42.804Z,100078.72
2023-03-27T23:31:13.370Z,100071.69
2023-03-27T23:33:43.296Z,100073.34
2023-03-27T23:36:30.121Z,100067.81
2023-03-27T23:38:58.587Z,100078.06
2023-03-27T23:41:29.495Z,100079.72
2023-03-27T23:43:59.873Z,100065.66
2023-03-27T23:46:28.002Z,100079.47
2023-03-27T23:49:03.262Z,100075.06
2023-03-27T23:51:33.937Z,100080.28
2023-03-27T23:54:02.163Z,100089.69
2023-03-27T23:56:32.165Z,100075.75
2023-03-27T23:59:00.198Z,100106.38
